sensor_id;sensor_type;location;lat;lon;timestamp;pressure;altitude;pressure_sealevel;temperature;humidity
62164;BME280;48149;51.132;7.178;2023-05-14T00:02:08;98911.25;;;24.67;37.28
62164;BME280;48149;51.132;7.178;2023-05-14T00:04:33;98911.13;;;24.31;38.93
62164;BME280;48149;51.132;7.178;2023-05-14T00:06:58;98908.31;;;24.82;38.86
62164;BME280;48149;51.132;7.178;2023-05-14T00:09:24;98901.94;;;24.51;38.90
62164;BME280;48149;51.132;7.178;2023-05-14T00:11:49;98908.53;;;23.94;39.69
62164;BME280;48149;51.132;7.178;2023-05-14T00:14:14;98908.50;;;24.12;39.05
62164;BME280;48149;51.132;7.178;2023-05-14T00:16:39;98902.63;;;25.46;36.64
62164;BME280;48149;51.132;7.178;2023-05-14T00:19:04;98900.75;;;26.14;36.32
62164;BME280;48149;51.132;7.178;2023-05-14T00:21:30;98906.09;;;25.83;36.36
62164;BME280;48149;51.132;7.178;2023-05-14T00:23:56;98897.28;;;25.69;36.30
62164;BME280;48149;51.132;7.178;2023-05-14T00:26:21;98899.09;;;24.15;38.69
62164;BME280;48149;51.132;7.178;2023-05-14T00:28:46;98898.47;;;25.40;37.21
62164;BME280;48149;51.132;7.178;2023-05-14T00:31:13;98899.66;;;25.34;36.34
62164;BME280;48149;51.132;7.178;2023-05-14T00:33:38;98892.75;;;26.22;35.78
62164;BME280;48149;51.132;7.178;2023-05-14T00:36:03;98889.66;;;24.63;37.47
62164;BME280;48149;51.132;7.178;2023-05-14T00:38:29;98883.28;;;25.50;36.03
62164;BME280;48149;51.132;7.178;2023-05-14T00:40:54;98888.50;;;25.19;38.50
62164;BME280;48149;51.132;7.178;2023-05-14T00:43:19;98887.88;;;23.67;39.90
62164;BME280;48149;51.132;7.178;2023-05-14T00:45:45;98887.47;;;24.92;38.13
62164;BME280;48149;51.132;7.178;2023-05-14T00:48:11;98883.91;;;24.70;37.37
62164;BME280;48149;51.132;7.178;2023-05-14T00:50:37;98880.69;;;24.13;39.17
62164;BME280;48149;51.132;7.178;2023-05-14T00:53:02;98878.28;;;25.79;35.09
62164;BME280;48149;51.132;7.178;2023-05-14T00:55:33;98878.13;;;24.49;38.09
62164;BME280;48149;51.132;7.178;2023-05-14T00:57:59;98877.94;;;24.59;38.17
62164;BME280;48149;51.132;7.178;2023-05-14T01:00:25;98876.47;;;25.30;36.61
62164;BME280;48149;51.132;7.178;2023-05-14T01:02:50;98869.13;;;25.22;35.91
62164;BME280;48149;51.132;7.178;2023-05-14T01:05:15;98869.75;;;24.83;37.07
62164;BME280;48149;51.132;7.178;2023-05-14T01:07:48;98863.44;;;25.01;36.36
62164;BME280;48149;51.132;7.178;2023-05-14T01:10:20;98864.25;;;24.47;37.57
62164;BME280;48149;51.132;7.178;2023-05-14T01:13:03;98869.56;;;25.15;36.29
62164;BME280;48149;51.132;7.178;2023-05-14T01:15:32;98860.72;;;24.52;38.35
62164;BME280;48149;51.132;7.178;2023-05-14T01:17:59;98855.94;;;24.49;38.14
62164;BME280;48149;51.132;7.178;2023-05-14T01:20:25;98857.59;;;24.99;37.72
62164;BME280;48149;51.132;7.178;2023-05-14T01:22:50;98860.69;;;25.28;35.84
62164;BME280;48149;51.132;7.178;2023-05-14T01:25:16;98855.94;;;24.89;36.50
62164;BME280;48149;51.132;7.178;2023-05-14T01:32:57;98854.88;;;26.72;33.53
62164;BME280;48149;51.132;7.178;2023-05-14T01:35:25;98852.19;;;26.24;33.52
62164;BME280;48149;51.132;7.178;2023-05-14T01:37:52;98848.38;;;25.63;34.64
62164;BME280;48149;51.132;7.178;2023-05-14T01:40:18;98853.88;;;25.44;35.05
62164;BME280;48149;51.132;7.178;2023-05-14T01:42:43;98848.66;;;25.39;34.72
62164;BME280;48149;51.132;7.178;2023-05-14T01:45:09;98843.81;;;24.65;35.72
62164;BME280;48149;51.132;7.178;2023-05-14T01:47:34;98846.34;;;25.11;34.73
62164;BME280;48149;51.132;7.178;2023-05-14T01:50:00;98843.09;;;26.33;32.88
62164;BME280;48149;51.132;7.178;2023-05-14T01:52:25;98845.44;;;25.15;34.33
62164;BME280;48149;51.132;7.178;2023-05-14T01:54:50;98836.91;;;24.64;35.09
62164;BME280;48149;51.132;7.178;2023-05-14T01:57:15;98839.50;;;25.40;33.90
62164;BME280;48149;51.132;7.178;2023-05-14T01:59:41;98835.25;;;25.84;33.42
62164;BME280;48149;51.132;7.178;2023-05-14T02:02:06;98830.53;;;25.89;33.45
62164;BME280;48149;51.132;7.178;2023-05-14T02:04:31;98840.84;;;24.53;35.46
62164;BME280;48149;51.132;7.178;2023-05-14T02:06:56;98833.28;;;25.31;34.58
62164;BME280;48149;51.132;7.178;2023-05-14T02:09:21;98832.78;;;26.27;32.39
62164;BME280;48149;51.132;7.178;2023-05-14T02:11:47;98833.38;;;25.40;34.36
62164;BME280;48149;51.132;7.178;2023-05-14T02:14:12;98828.75;;;24.96;35.33
62164;BME280;48149;51.132;7.178;2023-05-14T02:16:39;98828.19;;;24.58;35.43
62164;BME280;48149;51.132;7.178;2023-05-14T02:19:04;98819.66;;;25.41;34.46
62164;BME280;48149;51.132;7.178;2023-05-14T02:21:30;98824.28;;;24.78;34.73
62164;BME280;48149;51.132;7.178;2023-05-14T02:23:56;98826.50;;;24.49;35.73
62164;BME280;48149;51.132;7.178;2023-05-14T02:26:21;98821.41;;;24.74;35.38
62164;BME280;48149;51.132;7.178;2023-05-14T02:28:46;98821.91;;;24.63;36.17
62164;BME280;48149;51.132;7.178;2023-05-14T02:31:11;98825.13;;;25.14;34.97
62164;BME280;48149;51.132;7.178;2023-05-14T02:33:37;98825.25;;;26.37;33.03
62164;BME280;48149;51.132;7.178;2023-05-14T02:36:02;98819.53;;;25.69;33.24
62164;BME280;48149;51.132;7.178;2023-05-14T02:38:27;98824.09;;;26.69;32.49
62164;BME280;48149;51.132;7.178;2023-05-14T02:40:52;98816.56;;;26.01;33.17
62164;BME280;48149;51.132;7.178;2023-05-14T02:43:17;98814.50;;;26.07;33.04
62164;BME280;48149;51.132;7.178;2023-05-14T02:45:43;98820.19;;;26.92;32.10
62164;BME280;48149;51.132;7.178;2023-05-14T02:48:08;98816.97;;;26.73;31.64
62164;BME280;48149;51.132;7.178;2023-05-14T02:50:33;98816.97;;;26.73;32.06
62164;BME280;48149;51.132;7.178;2023-05-14T02:52:58;98818.84;;;26.64;32.02
62164;BME280;48149;51.132;7.178;2023-05-14T02:55:24;98814.78;;;26.75;31.59
62164;BME280;48149;51.132;7.178;2023-05-14T02:57:50;98817.50;;;27.27;30.97
62164;BME280;48149;51.132;7.178;2023-05-14T03:00:17;98819.34;;;26.66;31.28
62164;BME280;48149;51.132;7.178;2023-05-14T03:02:42;98823.84;;;27.22;30.80
62164;BME280;48149;51.132;7.178;2023-05-14T03:05:09;98817.47;;;26.19;32.21
62164;BME280;48149;51.132;7.178;2023-05-14T03:07:34;98819.75;;;25.14;34.56
62164;BME280;48149;51.132;7.178;2023-05-14T03:09:59;98825.78;;;24.70;35.22
62164;BME280;48149;51.132;7.178;2023-05-14T03:12:25;98824.47;;;24.95;35.35
62164;BME280;48149;51.132;7.178;2023-05-14T03:14:50;98810.63;;;25.60;33.84
62164;BME280;48149;51.132;7.178;2023-05-14T03:17:16;98811.03;;;26.28;32.64
62164;BME280;48149;51.132;7.178;2023-05-14T03:19:41;98815.31;;;26.38;32.41
62164;BME280;48149;51.132;7.178;2023-05-14T03:22:06;98813.56;;;25.27;33.98
62164;BME280;48149;51.132;7.178;2023-05-14T03:24:31;98812.28;;;24.89;34.76
62164;BME280;48149;51.132;7.178;2023-05-14T03:26:56;98807.13;;;24.79;34.97
62164;BME280;48149;51.132;7.178;2023-05-14T03:29:22;98814.59;;;24.55;35.20
62164;BME280;48149;51.132;7.178;2023-05-14T03:31:47;98812.00;;;23.63;37.39
62164;BME280;48149;51.132;7.178;2023-05-14T03:34:13;98814.06;;;23.98;36.75
62164;BME280;48149;51.132;7.178;2023-05-14T03:36:39;98810.00;;;25.18;34.88
62164;BME280;48149;51.132;7.178;2023-05-14T03:39:04;98811.75;;;25.01;35.25
62164;BME280;48149;51.132;7.178;2023-05-14T03:41:33;98807.19;;;25.37;34.38
62164;BME280;48149;51.132;7.178;2023-05-14T03:43:58;98805.00;;;25.03;34.86
62164;BME280;48149;51.132;7.178;2023-05-14T03:46:23;98806.44;;;24.87;35.21
62164;BME280;48149;51.132;7.178;2023-05-14T03:48:49;98796.75;;;25.35;34.66
62164;BME280;48149;51.132;7.178;2023-05-14T03:51:14;98800.41;;;25.17;34.54
62164;BME280;48149;51.132;7.178;2023-05-14T03:53:39;98796.28;;;25.33;35.00
62164;BME280;48149;51.132;7.178;2023-05-14T03:56:05;98807.69;;;25.25;34.55
62164;BME280;48149;51.132;7.178;2023-05-14T03:58:30;98801.13;;;25.31;34.65
62164;BME280;48149;51.132;7.178;2023-05-14T04:00:55;98794.09;;;25.58;34.17
62164;BME280;48149;51.132;7.178;2023-05-14T04:03:21;98801.91;;;25.10;35.24
62164;BME280;48149;51.132;7.178;2023-05-14T04:05:46;98803.06;;;25.17;34.82
62164;BME280;48149;51.132;7.178;2023-05-14T04:08:11;98793.13;;;24.96;35.53
62164;BME280;48149;51.132;7.178;2023-05-14T04:10:36;98794.91;;;25.22;36.57
62164;BME280;48149;51.132;7.178;2023-05-14T04:13:01;98802.41;;;24.49;37.57
62164;BME280;48149;51.132;7.178;2023-05-14T04:15:27;98804.88;;;22.65;42.64
62164;BME280;48149;51.132;7.178;2023-05-14T04:17:52;98808.13;;;22.62;41.99
62164;BME280;48149;51.132;7.178;2023-05-14T04:20:17;98807.41;;;23.50;40.23
62164;BME280;48149;51.132;7.178;2023-05-14T04:22:42;98817.53;;;23.15;41.39
62164;BME280;48149;51.132;7.178;2023-05-14T04:25:08;98808.53;;;22.50;42.69
62164;BME280;48149;51.132;7.178;2023-05-14T04:27:33;98803.03;;;22.65;42.51
62164;BME280;48149;51.132;7.178;2023-05-14T04:29:58;98809.81;;;23.14;41.66
62164;BME280;48149;51.132;7.178;2023-05-14T04:32:23;98809.31;;;22.51;43.62
62164;BME280;48149;51.132;7.178;2023-05-14T04:34:49;98809.91;;;22.90;42.21
62164;BME280;48149;51.132;7.178;2023-05-14T04:37:14;98813.22;;;22.58;43.27
62164;BME280;48149;51.132;7.178;2023-05-14T04:39:40;98813.44;;;22.62;43.23
62164;BME280;48149;51.132;7.178;2023-05-14T04:42:05;98812.34;;;22.68;43.39
62164;BME280;48149;51.132;7.178;2023-05-14T04:44:30;98815.81;;;23.06;42.95
62164;BME280;48149;51.132;7.178;2023-05-14T04:46:56;98812.97;;;23.53;42.21
62164;BME280;48149;51.132;7.178;2023-05-14T04:49:21;98808.06;;;23.60;41.28
62164;BME280;48149;51.132;7.178;2023-05-14T04:51:46;98808.75;;;24.12;40.79
62164;BME280;48149;51.132;7.178;2023-05-14T04:54:12;98811.19;;;24.90;39.21
62164;BME280;48149;51.132;7.178;2023-05-14T04:56:37;98803.41;;;24.25;40.42
62164;BME280;48149;51.132;7.178;2023-05-14T04:59:02;98806.94;;;24.75;39.10
62164;BME280;48149;51.132;7.178;2023-05-14T05:01:27;98803.06;;;24.81;38.91
62164;BME280;48149;51.132;7.178;2023-05-14T05:03:53;98801.34;;;24.99;38.69
62164;BME280;48149;51.132;7.178;2023-05-14T05:06:19;98795.44;;;24.88;38.18
62164;BME280;48149;51.132;7.178;2023-05-14T05:08:44;98800.81;;;24.34;38.99
62164;BME280;48149;51.132;7.178;2023-05-14T05:11:09;98801.53;;;23.66;41.60
62164;BME280;48149;51.132;7.178;2023-05-14T05:13:35;98800.50;;;23.95;42.75
62164;BME280;48149;51.132;7.178;2023-05-14T05:16:00;98799.22;;;23.92;42.40
62164;BME280;48149;51.132;7.178;2023-05-14T05:18:25;98809.50;;;23.85;42.41
62164;BME280;48149;51.132;7.178;2023-05-14T05:20:50;98801.19;;;24.82;39.89
62164;BME280;48149;51.132;7.178;2023-05-14T05:23:15;98798.38;;;25.23;38.72
62164;BME280;48149;51.132;7.178;2023-05-14T05:25:41;98798.22;;;24.70;39.25
62164;BME280;48149;51.132;7.178;2023-05-14T05:28:06;98796.91;;;25.53;37.61
62164;BME280;48149;51.132;7.178;2023-05-14T05:30:31;98792.09;;;26.03;36.59
62164;BME280;48149;51.132;7.178;2023-05-14T05:32:56;98794.50;;;26.43;36.46
62164;BME280;48149;51.132;7.178;2023-05-14T05:35:22;98802.47;;;27.17;34.70
62164;BME280;48149;51.132;7.178;2023-05-14T05:37:47;98809.47;;;26.44;37.40
62164;BME280;48149;51.132;7.178;2023-05-14T05:40:12;98811.84;;;27.20;36.13
62164;BME280;48149;51.132;7.178;2023-05-14T05:42:38;98804.81;;;28.25;34.48
62164;BME280;48149;51.132;7.178;2023-05-14T05:45:04;98816.66;;;26.75;36.45
62164;BME280;48149;51.132;7.178;2023-05-14T05:47:29;98803.81;;;25.54;37.72
62164;BME280;48149;51.132;7.178;2023-05-14T05:49:54;98816.63;;;27.95;33.97
62164;BME280;48149;51.132;7.178;2023-05-14T05:52:19;98812.91;;;27.70;32.55
62164;BME280;48149;51.132;7.178;2023-05-14T05:54:45;98812.75;;;27.41;31.68
62164;BME280;48149;51.132;7.178;2023-05-14T05:57:10;98806.16;;;27.93;31.65
62164;BME280;48149;51.132;7.178;2023-05-14T05:59:35;98815.00;;;28.99;30.44
62164;BME280;48149;51.132;7.178;2023-05-14T06:02:00;98811.72;;;30.12;29.35
62164;BME280;48149;51.132;7.178;2023-05-14T06:04:26;98816.94;;;29.52;30.76
62164;BME280;48149;51.132;7.178;2023-05-14T06:06:51;98816.38;;;29.46;31.60
62164;BME280;48149;51.132;7.178;2023-05-14T06:09:16;98821.69;;;29.13;30.89
62164;BME280;48149;51.132;7.178;2023-05-14T06:11:41;98822.63;;;29.38;31.01
62164;BME280;48149;51.132;7.178;2023-05-14T06:14:06;98816.44;;;29.38;31.02
62164;BME280;48149;51.132;7.178;2023-05-14T06:16:32;98824.00;;;28.82;32.89
62164;BME280;48149;51.132;7.178;2023-05-14T06:18:57;98819.22;;;28.58;32.91
62164;BME280;48149;51.132;7.178;2023-05-14T06:21:22;98819.91;;;28.09;33.22
62164;BME280;48149;51.132;7.178;2023-05-14T06:23:47;98820.59;;;28.65;33.27
62164;BME280;48149;51.132;7.178;2023-05-14T06:26:13;98835.03;;;26.81;34.42
62164;BME280;48149;51.132;7.178;2023-05-14T06:28:38;98829.09;;;27.99;34.07
62164;BME280;48149;51.132;7.178;2023-05-14T06:31:03;98825.66;;;28.95;32.14
62164;BME280;48149;51.132;7.178;2023-05-14T06:33:28;98829.06;;;27.44;35.18
62164;BME280;48149;51.132;7.178;2023-05-14T06:35:54;98838.06;;;27.40;34.94
62164;BME280;48149;51.132;7.178;2023-05-14T06:38:20;98832.06;;;28.15;32.79
62164;BME280;48149;51.132;7.178;2023-05-14T06:40:45;98831.81;;;28.75;32.13
62164;BME280;48149;51.132;7.178;2023-05-14T06:43:10;98829.44;;;28.74;32.43
62164;BME280;48149;51.132;7.178;2023-05-14T06:45:35;98829.19;;;29.49;30.98
62164;BME280;48149;51.132;7.178;2023-05-14T06:48:01;98831.03;;;29.16;33.12
62164;BME280;48149;51.132;7.178;2023-05-14T06:50:26;98833.72;;;29.16;32.22
62164;BME280;48149;51.132;7.178;2023-05-14T06:52:51;98826.88;;;28.48;32.12
62164;BME280;48149;51.132;7.178;2023-05-14T06:55:16;98829.97;;;28.88;32.27
62164;BME280;48149;51.132;7.178;2023-05-14T06:57:42;98823.94;;;28.91;33.40
62164;BME280;48149;51.132;7.178;2023-05-14T07:00:07;98821.03;;;30.03;32.01
62164;BME280;48149;51.132;7.178;2023-05-14T07:02:33;98820.25;;;29.70;30.97
62164;BME280;48149;51.132;7.178;2023-05-14T07:04:58;98823.28;;;29.35;31.88
62164;BME280;48149;51.132;7.178;2023-05-14T07:07:23;98825.59;;;28.16;32.93
62164;BME280;48149;51.132;7.178;2023-05-14T07:09:48;98815.09;;;29.44;32.28
62164;BME280;48149;51.132;7.178;2023-05-14T07:12:13;98822.22;;;29.48;32.58
62164;BME280;48149;51.132;7.178;2023-05-14T07:14:39;98814.44;;;27.88;34.64
62164;BME280;48149;51.132;7.178;2023-05-14T07:17:04;98813.72;;;30.03;32.53
62164;BME280;48149;51.132;7.178;2023-05-14T07:19:29;98812.22;;;29.07;34.08
62164;BME280;48149;51.132;7.178;2023-05-14T07:21:55;98812.00;;;29.87;33.53
62164;BME280;48149;51.132;7.178;2023-05-14T07:24:21;98808.41;;;29.83;33.04
62164;BME280;48149;51.132;7.178;2023-05-14T07:26:46;98819.00;;;30.97;31.93
62164;BME280;48149;51.132;7.178;2023-05-14T07:29:11;98812.22;;;31.31;32.55
62164;BME280;48149;51.132;7.178;2023-05-14T07:31:36;98810.72;;;30.41;30.55
62164;BME280;48149;51.132;7.178;2023-05-14T07:34:01;98812.03;;;32.26;29.69
62164;BME280;48149;51.132;7.178;2023-05-14T07:36:27;98805.88;;;31.11;31.06
62164;BME280;48149;51.132;7.178;2023-05-14T07:38:52;98803.22;;;30.87;30.71
62164;BME280;48149;51.132;7.178;2023-05-14T07:41:17;98807.56;;;31.43;30.35
62164;BME280;48149;51.132;7.178;2023-05-14T07:43:42;98799.56;;;32.06;29.78
62164;BME280;48149;51.132;7.178;2023-05-14T07:46:07;98798.91;;;31.97;29.24
62164;BME280;48149;51.132;7.178;2023-05-14T07:48:33;98799.38;;;32.81;28.74
62164;BME280;48149;51.132;7.178;2023-05-14T07:50:58;98801.53;;;31.93;31.33
62164;BME280;48149;51.132;7.178;2023-05-14T07:53:23;98792.47;;;30.38;28.78
62164;BME280;48149;51.132;7.178;2023-05-14T07:55:49;98793.03;;;31.08;27.32
62164;BME280;48149;51.132;7.178;2023-05-14T07:58:15;98795.41;;;31.96;29.56
62164;BME280;48149;51.132;7.178;2023-05-14T08:00:40;98787.75;;;30.47;30.48
62164;BME280;48149;51.132;7.178;2023-05-14T08:03:06;98794.22;;;30.83;30.75
62164;BME280;48149;51.132;7.178;2023-05-14T08:05:31;98796.22;;;30.86;30.54
62164;BME280;48149;51.132;7.178;2023-05-14T08:07:58;98800.09;;;30.00;33.17
62164;BME280;48149;51.132;7.178;2023-05-14T08:10:23;98798.09;;;31.37;29.19
62164;BME280;48149;51.132;7.178;2023-05-14T08:12:48;98799.91;;;31.45;27.38
62164;BME280;48149;51.132;7.178;2023-05-14T08:15:13;98795.44;;;30.97;27.23
62164;BME280;48149;51.132;7.178;2023-05-14T08:17:39;98807.34;;;31.36;26.01
62164;BME280;48149;51.132;7.178;2023-05-14T08:20:04;98795.81;;;30.35;27.18
62164;BME280;48149;51.132;7.178;2023-05-14T08:22:30;98787.03;;;30.26;27.00
62164;BME280;48149;51.132;7.178;2023-05-14T08:24:55;98786.63;;;30.48;26.39
62164;BME280;48149;51.132;7.178;2023-05-14T08:27:21;98792.25;;;28.88;26.65
62164;BME280;48149;51.132;7.178;2023-05-14T08:29:46;98789.91;;;29.19;27.57
62164;BME280;48149;51.132;7.178;2023-05-14T08:32:12;98799.22;;;32.23;24.88
62164;BME280;48149;51.132;7.178;2023-05-14T08:34:37;98798.81;;;30.94;26.33
62164;BME280;48149;51.132;7.178;2023-05-14T08:37:02;98797.50;;;32.03;24.92
62164;BME280;48149;51.132;7.178;2023-05-14T08:39:28;98785.53;;;32.51;23.99
62164;BME280;48149;51.132;7.178;2023-05-14T08:41:54;98787.38;;;31.68;29.25
62164;BME280;48149;51.132;7.178;2023-05-14T08:44:19;98788.63;;;29.91;32.76
62164;BME280;48149;51.132;7.178;2023-05-14T08:46:50;98789.28;;;29.43;34.97
62164;BME280;48149;51.132;7.178;2023-05-14T08:51:43;98795.63;;;30.52;32.87
62164;BME280;48149;51.132;7.178;2023-05-14T08:54:12;98787.72;;;30.35;33.88
62164;BME280;48149;51.132;7.178;2023-05-14T08:56:40;98782.09;;;30.64;33.59
62164;BME280;48149;51.132;7.178;2023-05-14T08:59:07;98782.31;;;32.80;30.63
62164;BME280;48149;51.132;7.178;2023-05-14T09:01:32;98780.66;;;32.75;30.01
62164;BME280;48149;51.132;7.178;2023-05-14T09:03:58;98788.25;;;33.05;28.35
62164;BME280;48149;51.132;7.178;2023-05-14T09:06:25;98782.75;;;31.41;31.75
62164;BME280;48149;51.132;7.178;2023-05-14T09:08:51;98788.63;;;33.22;29.05
62164;BME280;48149;51.132;7.178;2023-05-14T09:11:16;98780.81;;;32.83;30.21
62164;BME280;48149;51.132;7.178;2023-05-14T09:13:42;98783.75;;;32.08;30.84
62164;BME280;48149;51.132;7.178;2023-05-14T09:16:07;98786.22;;;30.86;32.08
62164;BME280;48149;51.132;7.178;2023-05-14T09:18:34;98792.88;;;30.89;31.11
62164;BME280;48149;51.132;7.178;2023-05-14T09:20:59;98789.56;;;31.35;31.01
62164;BME280;48149;51.132;7.178;2023-05-14T09:23:25;98787.09;;;31.30;30.83
62164;BME280;48149;51.132;7.178;2023-05-14T09:25:50;98780.38;;;32.61;29.77
62164;BME280;48149;51.132;7.178;2023-05-14T09:28:16;98785.84;;;34.03;28.30
62164;BME280;48149;51.132;7.178;2023-05-14T09:30:45;98780.75;;;32.79;28.98
62164;BME280;48149;51.132;7.178;2023-05-14T09:33:10;98780.38;;;30.84;33.32
62164;BME280;48149;51.132;7.178;2023-05-14T09:35:36;98775.28;;;28.87;34.83
62164;BME280;48149;51.132;7.178;2023-05-14T09:38:04;98778.94;;;30.26;32.39
62164;BME280;48149;51.132;7.178;2023-05-14T09:40:29;98773.03;;;31.52;31.25
62164;BME280;48149;51.132;7.178;2023-05-14T09:42:54;98769.44;;;33.31;29.44
62164;BME280;48149;51.132;7.178;2023-05-14T09:45:20;98768.94;;;33.48;29.47
62164;BME280;48149;51.132;7.178;2023-05-14T09:47:45;98764.06;;;35.08;28.44
62164;BME280;48149;51.132;7.178;2023-05-14T09:50:10;98763.38;;;33.41;28.43
62164;BME280;48149;51.132;7.178;2023-05-14T09:52:36;98771.47;;;32.80;30.35
62164;BME280;48149;51.132;7.178;2023-05-14T09:55:01;98762.75;;;30.62;32.54
62164;BME280;48149;51.132;7.178;2023-05-14T09:57:27;98763.38;;;34.06;28.62
62164;BME280;48149;51.132;7.178;2023-05-14T09:59:53;98755.09;;;30.92;31.69
62164;BME280;48149;51.132;7.178;2023-05-14T10:04:43;98749.91;;;32.02;30.61
62164;BME280;48149;51.132;7.178;2023-05-14T10:07:08;98750.28;;;34.94;28.23
62164;BME280;48149;51.132;7.178;2023-05-14T10:09:34;98743.16;;;38.29;23.81
62164;BME280;48149;51.132;7.178;2023-05-14T10:12:01;98745.13;;;36.03;26.20
62164;BME280;48149;51.132;7.178;2023-05-14T10:14:28;98737.47;;;34.64;27.06
62164;BME280;48149;51.132;7.178;2023-05-14T10:16:57;98734.19;;;37.89;23.98
62164;BME280;48149;51.132;7.178;2023-05-14T10:19:23;98736.03;;;34.18;26.99
62164;BME280;48149;51.132;7.178;2023-05-14T10:21:55;98733.72;;;34.20;27.46
62164;BME280;48149;51.132;7.178;2023-05-14T10:24:21;98730.81;;;32.45;28.97
62164;BME280;48149;51.132;7.178;2023-05-14T10:26:46;98732.44;;;31.68;29.21
62164;BME280;48149;51.132;7.178;2023-05-14T10:29:12;98730.75;;;31.32;29.48
62164;BME280;48149;51.132;7.178;2023-05-14T10:31:44;98736.09;;;30.77;30.69
62164;BME280;48149;51.132;7.178;2023-05-14T10:36:57;98727.19;;;32.22;29.97
62164;BME280;48149;51.132;7.178;2023-05-14T10:39:22;98731.22;;;30.66;32.57
62164;BME280;48149;51.132;7.178;2023-05-14T10:41:48;98730.22;;;32.36;29.59
62164;BME280;48149;51.132;7.178;2023-05-14T10:44:13;98728.28;;;31.55;30.66
62164;BME280;48149;51.132;7.178;2023-05-14T10:46:40;98721.06;;;34.57;26.68
62164;BME280;48149;51.132;7.178;2023-05-14T10:49:05;98717.78;;;34.18;27.48
62164;BME280;48149;51.132;7.178;2023-05-14T10:51:30;98720.25;;;34.87;25.26
62164;BME280;48149;51.132;7.178;2023-05-14T10:53:57;98721.00;;;36.01;23.43
62164;BME280;48149;51.132;7.178;2023-05-14T10:56:25;98707.75;;;34.52;26.31
62164;BME280;48149;51.132;7.178;2023-05-14T10:58:50;98707.25;;;34.69;26.98
62164;BME280;48149;51.132;7.178;2023-05-14T11:01:15;98709.72;;;30.86;30.65
62164;BME280;48149;51.132;7.178;2023-05-14T11:03:41;98709.44;;;32.98;27.86
62164;BME280;48149;51.132;7.178;2023-05-14T11:06:07;98708.63;;;33.58;27.49
62164;BME280;48149;51.132;7.178;2023-05-14T11:08:33;98701.38;;;38.18;23.03
62164;BME280;48149;51.132;7.178;2023-05-14T11:10:58;98700.50;;;38.56;22.91
62164;BME280;48149;51.132;7.178;2023-05-14T11:13:24;98695.72;;;36.62;24.37
62164;BME280;48149;51.132;7.178;2023-05-14T11:15:50;98691.00;;;34.47;22.05
62164;BME280;48149;51.132;7.178;2023-05-14T11:18:25;98694.81;;;34.12;20.94
62164;BME280;48149;51.132;7.178;2023-05-14T11:20:50;98686.25;;;33.42;20.42
62164;BME280;48149;51.132;7.178;2023-05-14T11:23:16;98689.94;;;31.68;21.86
62164;BME280;48149;51.132;7.178;2023-05-14T11:25:41;98696.84;;;32.67;20.50
62164;BME280;48149;51.132;7.178;2023-05-14T11:28:07;98688.69;;;33.05;21.35
62164;BME280;48149;51.132;7.178;2023-05-14T11:30:32;98687.47;;;35.94;19.01
62164;BME280;48149;51.132;7.178;2023-05-14T11:32:57;98675.53;;;36.84;18.41
62164;BME280;48149;51.132;7.178;2023-05-14T11:35:22;98675.22;;;37.18;18.81
62164;BME280;48149;51.132;7.178;2023-05-14T11:37:48;98680.00;;;34.66;19.25
62164;BME280;48149;51.132;7.178;2023-05-14T11:40:15;98674.75;;;35.17;19.61
62164;BME280;48149;51.132;7.178;2023-05-14T11:42:40;98672.94;;;36.30;18.84
62164;BME280;48149;51.132;7.178;2023-05-14T11:45:06;98661.03;;;38.61;18.20
62164;BME280;48149;51.132;7.178;2023-05-14T11:47:35;98665.03;;;41.05;18.33
62164;BME280;48149;51.132;7.178;2023-05-14T11:50:00;98657.16;;;39.20;17.88
62164;BME280;48149;51.132;7.178;2023-05-14T11:52:25;98652.88;;;38.43;19.10
62164;BME280;48149;51.132;7.178;2023-05-14T11:54:50;98655.06;;;33.55;20.96
62164;BME280;48149;51.132;7.178;2023-05-14T11:57:17;98653.81;;;35.68;20.21
62164;BME280;48149;51.132;7.178;2023-05-14T11:59:42;98649.09;;;37.24;19.10
62164;BME280;48149;51.132;7.178;2023-05-14T12:02:11;98653.16;;;35.38;20.36
62164;BME280;48149;51.132;7.178;2023-05-14T12:04:37;98642.56;;;35.26;20.43
62164;BME280;48149;51.132;7.178;2023-05-14T12:07:10;98649.53;;;33.48;22.12
62164;BME280;48149;51.132;7.178;2023-05-14T12:09:36;98650.44;;;35.38;20.95
62164;BME280;48149;51.132;7.178;2023-05-14T12:12:07;98651.00;;;33.91;21.88
62164;BME280;48149;51.132;7.178;2023-05-14T12:14:35;98642.34;;;32.37;22.41
62164;BME280;48149;51.132;7.178;2023-05-14T12:17:01;98640.75;;;33.81;20.72
62164;BME280;48149;51.132;7.178;2023-05-14T12:19:26;98632.69;;;37.80;19.31
62164;BME280;48149;51.132;7.178;2023-05-14T12:21:51;98637.06;;;41.64;16.13
62164;BME280;48149;51.132;7.178;2023-05-14T12:24:17;98639.53;;;41.05;17.39
62164;BME280;48149;51.132;7.178;2023-05-14T12:26:46;98638.47;;;39.08;18.13
62164;BME280;48149;51.132;7.178;2023-05-14T12:29:12;98638.28;;;39.36;18.26
62164;BME280;48149;51.132;7.178;2023-05-14T12:31:37;98634.25;;;36.07;20.08
62164;BME280;48149;51.132;7.178;2023-05-14T12:34:08;98624.38;;;38.37;19.61
62164;BME280;48149;51.132;7.178;2023-05-14T12:36:34;98630.53;;;40.47;17.40
62164;BME280;48149;51.132;7.178;2023-05-14T12:38:59;98625.88;;;42.73;15.85
62164;BME280;48149;51.132;7.178;2023-05-14T12:41:31;98627.69;;;43.92;15.04
62164;BME280;48149;51.132;7.178;2023-05-14T12:43:56;98617.25;;;43.23;14.76
62164;BME280;48149;51.132;7.178;2023-05-14T12:46:22;98620.38;;;39.73;18.44
62164;BME280;48149;51.132;7.178;2023-05-14T12:48:47;98610.63;;;42.32;15.87
62164;BME280;48149;51.132;7.178;2023-05-14T12:51:13;98610.25;;;39.15;17.66
62164;BME280;48149;51.132;7.178;2023-05-14T12:53:38;98607.31;;;38.01;19.12
62164;BME280;48149;51.132;7.178;2023-05-14T12:56:03;98602.19;;;36.72;19.31
62164;BME280;48149;51.132;7.178;2023-05-14T12:58:29;98600.00;;;36.13;20.60
62164;BME280;48149;51.132;7.178;2023-05-14T13:00:54;98598.72;;;34.27;21.12
62164;BME280;48149;51.132;7.178;2023-05-14T13:03:20;98594.69;;;33.88;20.71
62164;BME280;48149;51.132;7.178;2023-05-14T13:05:45;98591.84;;;36.16;20.18